createdAt,value
2022-07-28T00:00:48.694Z,0
2022-07-28T00:01:49.297Z,0
2022-07-28T00:02:49.901Z,0
2022-07-28T00:03:50.467Z,0
2022-07-28T00:04:51.060Z,0
2022-07-28T00:05:51.653Z,0
2022-07-28T00:06:52.248Z,0
2022-07-28T00:07:52.843Z,0
2022-07-28T00:08:53.438Z,0
2022-07-28T00:09:59.846Z,0
2022-07-28T00:10:55.620Z,0
2022-07-28T00:11:56.215Z,0
2022-07-28T00:12:56.810Z,0
2022-07-28T00:13:57.403Z,0
2022-07-28T00:14:58.000Z,0
2022-07-28T00:15:58.623Z,0
2022-07-28T00:16:59.227Z,0
2022-07-28T00:17:59.820Z,0
2022-07-28T00:19:00.414Z,0
2022-07-28T00:20:01.010Z,0
2022-07-28T00:21:01.608Z,0
2022-07-28T00:22:02.201Z,0
2022-07-28T00:23:02.797Z,0
2022-07-28T00:24:03.390Z,0
2022-07-28T00:25:03.985Z,0
2022-07-28T00:26:04.580Z,0
2022-07-28T00:27:05.178Z,0
2022-07-28T00:28:05.796Z,0
2022-07-28T00:29:06.385Z,0
2022-07-28T00:30:06.985Z,0
2022-07-28T00:31:11.183Z,0
2022-07-28T00:32:09.252Z,0
2022-07-28T00:33:10.155Z,0
2022-07-28T00:34:11.044Z,0
2022-07-28T00:35:11.756Z,0
2022-07-28T00:36:12.717Z,0
2022-07-28T00:37:14.976Z,0
2022-07-28T00:38:14.108Z,0
2022-07-28T00:39:14.703Z,0
2022-07-28T00:40:15.299Z,0
2022-07-28T00:41:15.891Z,0
2022-07-28T00:42:16.487Z,0
2022-07-28T00:43:17.102Z,0
2022-07-28T00:44:17.697Z,0
2022-07-28T00:45:18.291Z,0
2022-07-28T00:46:19.008Z,0
2022-07-28T00:47:19.494Z,0
2022-07-28T00:48:20.089Z,0
2022-07-28T00:49:20.729Z,0
2022-07-28T00:50:21.282Z,0
2022-07-28T00:51:21.868Z,0
2022-07-28T00:52:22.462Z,0
2022-07-28T00:53:23.058Z,0
2022-07-28T00:54:23.712Z,0
2022-07-28T00:55:24.778Z,0
2022-07-28T00:56:25.405Z,0
2022-07-28T00:57:25.988Z,0
2022-07-28T00:58:26.581Z,0
2022-07-28T00:59:27.178Z,0
2022-07-28T01:00:27.769Z,0
2022-07-28T01:01:28.427Z,0
2022-07-28T01:02:29.155Z,0
2022-07-28T01:03:29.768Z,0
2022-07-28T01:04:30.362Z,0
2022-07-28T01:05:43.863Z,0
2022-07-28T01:06:32.565Z,0
2022-07-28T01:07:33.163Z,0
2022-07-28T01:08:33.768Z,0
2022-07-28T01:09:34.354Z,0
2022-07-28T01:10:34.967Z,0
2022-07-28T01:11:42.954Z,0
2022-07-28T01:12:37.151Z,0
2022-07-28T01:13:37.748Z,0
2022-07-28T01:14:38.339Z,0
2022-07-28T01:15:38.994Z,0
2022-07-28T01:16:39.586Z,0
2022-07-28T01:17:40.184Z,0
2022-07-28T01:18:40.776Z,0
2022-07-28T01:19:41.372Z,0
2022-07-28T01:20:41.965Z,0
2022-07-28T01:21:42.561Z,0
2022-07-28T01:22:43.158Z,0
2022-07-28T01:23:43.751Z,0
2022-07-28T01:24:44.456Z,0
2022-07-28T01:25:48.606Z,0
2022-07-28T01:26:46.636Z,0
2022-07-28T01:27:47.232Z,0
2022-07-28T01:28:47.829Z,0
2022-07-28T01:29:48.423Z,0
2022-07-28T01:30:49.040Z,0
2022-07-28T01:31:49.617Z,0
2022-07-28T01:32:50.207Z,0
2022-07-28T01:33:50.806Z,0
2022-07-28T01:34:51.399Z,0
2022-07-28T01:35:51.995Z,0
2022-07-28T01:36:52.593Z,0
2022-07-28T01:37:53.206Z,0
2022-07-28T01:38:53.798Z,0
2022-07-28T01:39:54.395Z,0
2022-07-28T01:40:54.993Z,0
2022-07-28T01:41:55.605Z,0
2022-07-28T01:42:56.198Z,0
2022-07-28T01:43:56.793Z,0
2022-07-28T01:44:57.387Z,0
2022-07-28T01:45:58.096Z,0
2022-07-28T01:46:58.661Z,0
2022-07-28T01:47:59.258Z,0
2022-07-28T01:48:59.912Z,0
2022-07-28T01:50:00.470Z,0
2022-07-28T01:51:01.065Z,0
2022-07-28T01:52:01.663Z,0
2022-07-28T01:53:02.254Z,0
2022-07-28T01:54:02.851Z,0
2022-07-28T01:55:03.446Z,0
2022-07-28T01:56:04.046Z,0
2022-07-28T01:57:04.637Z,0
2022-07-28T01:58:05.232Z,0
2022-07-28T01:59:05.840Z,0
2022-07-28T02:00:06.423Z,0
2022-07-28T02:01:07.093Z,0
2022-07-28T02:02:07.763Z,0
2022-07-28T02:03:08.372Z,0
2022-07-28T02:04:08.969Z,0
2022-07-28T02:05:09.622Z,0
2022-07-28T02:06:10.202Z,0
2022-07-28T02:07:10.794Z,0
2022-07-28T02:08:11.390Z,0
2022-07-28T02:09:11.985Z,0
2022-07-28T02:10:12.580Z,0
2022-07-28T02:11:13.174Z,0
2022-07-28T02:12:13.772Z,0
2022-07-28T02:13:14.363Z,0
2022-07-28T02:14:15.419Z,0
2022-07-28T02:15:16.162Z,0
2022-07-28T02:16:16.809Z,0
2022-07-28T02:17:17.391Z,0
2022-07-28T02:18:17.989Z,0
2022-07-28T02:19:18.584Z,0
2022-07-28T02:20:19.174Z,0
2022-07-28T02:21:19.765Z,0
2022-07-28T02:22:20.361Z,0
2022-07-28T02:23:20.953Z,0
2022-07-28T02:24:21.547Z,0
2022-07-28T02:25:22.151Z,0
2022-07-28T02:26:22.737Z,0
2022-07-28T02:27:23.331Z,0
2022-07-28T02:28:23.925Z,0
2022-07-28T02:29:49.696Z,0
2022-07-28T02:30:27.097Z,0
2022-07-28T02:31:27.761Z,0
2022-07-28T02:32:28.723Z,0
2022-07-28T02:33:59.971Z,0
2022-07-28T02:34:30.944Z,0
2022-07-28T02:35:32.118Z,0
2022-07-28T02:36:33.202Z,0
2022-07-28T02:37:33.795Z,0
2022-07-28T02:38:34.389Z,0
2022-07-28T02:39:34.986Z,0
2022-07-28T02:40:35.577Z,0
2022-07-28T02:41:36.182Z,0
2022-07-28T02:42:36.848Z,0
2022-07-28T02:43:49.319Z,0
2022-07-28T02:44:39.022Z,0
2022-07-28T02:45:39.617Z,0
2022-07-28T02:46:40.254Z,0
2022-07-28T02:47:40.820Z,0
2022-07-28T02:48:41.467Z,0
2022-07-28T02:49:42.023Z,0
2022-07-28T02:50:42.626Z,0
2022-07-28T02:51:43.236Z,0
2022-07-28T02:52:43.847Z,4
2022-07-28T02:53:44.442Z,4
2022-07-28T02:54:45.035Z,4
2022-07-28T02:55:45.632Z,0
2022-07-28T02:56:53.893Z,0
2022-07-28T02:57:47.834Z,4
2022-07-28T02:58:48.423Z,4
2022-07-28T02:59:49.021Z,4
2022-07-28T03:00:49.636Z,4
2022-07-28T03:01:50.297Z,4
2022-07-28T03:02:50.838Z,4
2022-07-28T03:03:51.434Z,8
2022-07-28T03:04:53.083Z,4
2022-07-28T03:05:53.650Z,8
2022-07-28T03:06:54.265Z,12
2022-07-28T03:07:54.879Z,12
2022-07-28T03:08:55.475Z,16
2022-07-28T03:09:56.070Z,12
2022-07-28T03:10:56.665Z,16
2022-07-28T03:11:57.259Z,20
2022-07-28T03:12:57.855Z,20
2022-07-28T03:13:58.451Z,24
2022-07-28T03:15:00.039Z,28
2022-07-28T03:16:00.635Z,32
2022-07-28T03:17:01.264Z,36
2022-07-28T03:18:01.829Z,40
2022-07-28T03:19:02.442Z,44
2022-07-28T03:20:03.063Z,56
2022-07-28T03:21:03.653Z,64
2022-07-28T03:22:04.250Z,68
2022-07-28T03:23:04.842Z,76
2022-07-28T03:24:05.440Z,88
2022-07-28T03:25:06.036Z,100
2022-07-28T03:26:06.905Z,112
2022-07-28T03:27:07.498Z,128
2022-07-28T03:28:08.117Z,144
2022-07-28T03:29:08.752Z,156
2022-07-28T03:30:09.353Z,176
2022-07-28T03:31:10.032Z,196
2022-07-28T03:32:10.631Z,212
2022-07-28T03:33:11.230Z,236
2022-07-28T03:34:12.292Z,260
2022-07-28T03:35:12.961Z,284
2022-07-28T03:36:13.558Z,312
2022-07-28T03:37:14.155Z,348
2022-07-28T03:38:14.756Z,384
2022-07-28T03:39:16.348Z,424
2022-07-28T03:40:16.946Z,464
2022-07-28T03:41:17.541Z,500
2022-07-28T03:42:18.140Z,540
2022-07-28T03:43:18.742Z,580
2022-07-28T03:44:27.667Z,620
2022-07-28T03:45:20.927Z,664
2022-07-28T03:46:21.599Z,708
2022-07-28T03:47:22.203Z,760
2022-07-28T03:48:22.802Z,808
2022-07-28T03:49:23.559Z,860
2022-07-28T03:50:24.167Z,912
2022-07-28T03:51:24.760Z,956
2022-07-28T03:52:26.025Z,1008
2022-07-28T03:53:26.633Z,1060
2022-07-28T03:54:27.232Z,1112
2022-07-28T03:55:27.832Z,1164
2022-07-28T03:56:28.434Z,1220
2022-07-28T03:57:29.034Z,1276
2022-07-28T03:58:29.639Z,1328
2022-07-28T03:59:30.235Z,1384
2022-07-28T04:00:30.830Z,1456
2022-07-28T04:01:31.472Z,1536
2022-07-28T04:02:32.074Z,1616
2022-07-28T04:03:42.637Z,1684
2022-07-28T04:04:34.251Z,1752
2022-07-28T04:05:34.847Z,1816
2022-07-28T04:06:35.446Z,1876
2022-07-28T04:07:36.044Z,1948
2022-07-28T04:08:36.651Z,2024
2022-07-28T04:09:37.243Z,2108
2022-07-28T04:10:37.850Z,2180
2022-07-28T04:11:38.445Z,2260
2022-07-28T04:12:39.057Z,2332
2022-07-28T04:13:39.655Z,2416
2022-07-28T04:14:40.252Z,2508
2022-07-28T04:15:40.851Z,2564
2022-07-28T04:16:41.534Z,2612
2022-07-28T04:17:42.079Z,2692
2022-07-28T04:18:42.680Z,2776
2022-07-28T04:19:43.277Z,2832
2022-07-28T04:20:43.876Z,2860
2022-07-28T04:21:44.480Z,2892
2022-07-28T04:22:45.075Z,2932
2022-07-28T04:23:45.673Z,2960
2022-07-28T04:24:46.274Z,2996
2022-07-28T04:25:46.875Z,3024
2022-07-28T04:26:47.475Z,3056
2022-07-28T04:27:48.074Z,3092
2022-07-28T04:28:48.675Z,3168
2022-07-28T04:29:49.273Z,3248
2022-07-28T04:30:49.975Z,3320
2022-07-28T04:31:50.509Z,3364
2022-07-28T04:32:51.112Z,3408
2022-07-28T04:33:51.733Z,3452
2022-07-28T04:34:52.330Z,3484
2022-07-28T04:35:52.975Z,3528
2022-07-28T04:36:53.532Z,3568
2022-07-28T04:37:54.134Z,3632
2022-07-28T04:38:54.733Z,3704
2022-07-28T04:39:55.335Z,3748
2022-07-28T04:40:55.949Z,3796
2022-07-28T04:41:56.550Z,3872
2022-07-28T04:42:57.151Z,3944
2022-07-28T04:43:57.753Z,3992
2022-07-28T04:44:58.351Z,4036
2022-07-28T04:45:58.979Z,4108
2022-07-28T04:46:59.556Z,4212
2022-07-28T04:48:00.175Z,4284
2022-07-28T04:49:00.868Z,4296
2022-07-28T04:50:01.447Z,4352
2022-07-28T04:51:02.034Z,4364
2022-07-28T04:52:02.632Z,4344
2022-07-28T04:53:03.239Z,4320
2022-07-28T04:54:03.832Z,4284
2022-07-28T04:55:04.434Z,4224
2022-07-28T04:56:05.038Z,4188
2022-07-28T04:57:06.283Z,4200
2022-07-28T04:58:07.235Z,4264
2022-07-28T04:59:08.824Z,4360
2022-07-28T05:00:10.416Z,4472
2022-07-28T05:01:11.415Z,4608
2022-07-28T05:02:11.976Z,4736
2022-07-28T05:03:12.576Z,4844
2022-07-28T05:04:13.436Z,4972
2022-07-28T05:05:14.265Z,5108
2022-07-28T05:06:14.844Z,5176
2022-07-28T05:07:15.447Z,5300
2022-07-28T05:08:16.047Z,5408
2022-07-28T05:09:16.645Z,5556
2022-07-28T05:10:17.247Z,5672
2022-07-28T05:11:17.846Z,5660
2022-07-28T05:12:18.447Z,5656
2022-07-28T05:13:19.046Z,5704
2022-07-28T05:14:19.648Z,5632
2022-07-28T05:15:20.250Z,5500
2022-07-28T05:16:20.872Z,5340
2022-07-28T05:17:21.469Z,5268
2022-07-28T05:18:22.057Z,5296
2022-07-28T05:19:22.679Z,5348
2022-07-28T05:20:23.280Z,5396
2022-07-28T05:21:23.880Z,5412
2022-07-28T05:22:24.482Z,5420
2022-07-28T05:23:25.090Z,5440
2022-07-28T05:24:25.686Z,5496
2022-07-28T05:25:26.286Z,5556
2022-07-28T05:26:26.889Z,5632
2022-07-28T05:27:27.485Z,5676
2022-07-28T05:28:28.088Z,5660
2022-07-28T05:29:42.464Z,5652
2022-07-28T05:30:30.278Z,5708
2022-07-28T05:31:30.935Z,5780
2022-07-28T05:32:31.481Z,5908
2022-07-28T05:33:32.236Z,6076
2022-07-28T05:34:32.769Z,6160
2022-07-28T05:35:33.392Z,6188
2022-07-28T05:36:33.991Z,6484
2022-07-28T05:37:34.592Z,6708
2022-07-28T05:38:35.219Z,6752
2022-07-28T05:39:35.811Z,6848
2022-07-28T05:40:36.412Z,6928
2022-07-28T05:41:37.012Z,6984
2022-07-28T05:42:37.611Z,7060
2022-07-28T05:43:38.234Z,7120
2022-07-28T05:44:38.855Z,7140
2022-07-28T05:45:39.488Z,7216
2022-07-28T05:46:40.054Z,7316
2022-07-28T05:47:40.655Z,7472
2022-07-28T05:48:41.299Z,7580
2022-07-28T05:49:41.887Z,7680
2022-07-28T05:50:42.477Z,7716
2022-07-28T05:51:43.078Z,7756
2022-07-28T05:52:43.680Z,7864
2022-07-28T05:53:44.277Z,7984
2022-07-28T05:54:44.876Z,7968
2022-07-28T05:56:00.937Z,7964
2022-07-28T05:56:50.122Z,8004
2022-07-28T05:57:48.664Z,8048
2022-07-28T05:58:49.262Z,7988
2022-07-28T05:59:49.884Z,8028
2022-07-28T06:00:50.504Z,8088
2022-07-28T06:01:51.110Z,8112
2022-07-28T06:02:51.681Z,8252
2022-07-28T06:04:09.986Z,8396
2022-07-28T06:04:53.873Z,8488
2022-07-28T06:05:59.474Z,8528
2022-07-28T06:06:56.084Z,8532
2022-07-28T06:07:56.670Z,8604
2022-07-28T06:08:57.292Z,9048
2022-07-28T06:09:57.911Z,9404
2022-07-28T06:10:58.511Z,9600
2022-07-28T06:11:59.112Z,9812
2022-07-28T06:12:59.713Z,9792
2022-07-28T06:14:00.314Z,9568
2022-07-28T06:15:00.917Z,9468
2022-07-28T06:16:01.559Z,10600
2022-07-28T06:17:02.221Z,11812
2022-07-28T06:18:02.782Z,10892
2022-07-28T06:19:03.383Z,10580
2022-07-28T06:20:03.987Z,10292
2022-07-28T06:21:04.585Z,10496
2022-07-28T06:22:05.187Z,10412
2022-07-28T06:23:05.811Z,10484
2022-07-28T06:24:06.427Z,10664
2022-07-28T06:25:07.028Z,11040
2022-07-28T06:26:07.634Z,11364
2022-07-28T06:27:08.230Z,11468
2022-07-28T06:28:08.830Z,11448
2022-07-28T06:29:09.431Z,11616
2022-07-28T06:30:10.054Z,12032
2022-07-28T06:31:10.704Z,12544
2022-07-28T06:32:11.355Z,12820
2022-07-28T06:33:16.859Z,13216
2022-07-28T06:34:13.823Z,13360
2022-07-28T06:35:14.504Z,13524
2022-07-28T06:36:15.121Z,14144
2022-07-28T06:37:15.709Z,14556
2022-07-28T06:38:16.313Z,14604
2022-07-28T06:39:16.934Z,14744
2022-07-28T06:40:17.537Z,15160
2022-07-28T06:41:18.142Z,15972
2022-07-28T06:42:18.742Z,17300
2022-07-28T06:43:19.342Z,19744
2022-07-28T06:44:20.322Z,19520
2022-07-28T06:45:21.839Z,21056
2022-07-28T06:46:22.516Z,21472
2022-07-28T06:47:23.101Z,18752
2022-07-28T06:48:27.282Z,16704
2022-07-28T06:49:25.337Z,19488
2022-07-28T06:50:27.112Z,24192
2022-07-28T06:51:27.495Z,25632
2022-07-28T06:52:28.099Z,24480
2022-07-28T06:53:33.608Z,24384
2022-07-28T06:54:30.298Z,24416
2022-07-28T06:55:35.342Z,24576
2022-07-28T06:56:32.499Z,25248
2022-07-28T06:57:33.660Z,23616
2022-07-28T06:58:34.453Z,22336
2022-07-28T06:59:35.027Z,24736
2022-07-28T07:00:35.721Z,26816
2022-07-28T07:01:36.386Z,27872
2022-07-28T07:02:36.936Z,27776
2022-07-28T07:03:37.539Z,25280
2022-07-28T07:04:38.200Z,23456
2022-07-28T07:05:38.793Z,24736
2022-07-28T07:06:39.414Z,28608
2022-07-28T07:07:43.393Z,29984
2022-07-28T07:08:41.612Z,30240
2022-07-28T07:09:42.214Z,28928
2022-07-28T07:10:42.815Z,28416
2022-07-28T07:11:43.420Z,26688
2022-07-28T07:12:44.020Z,28672
2022-07-28T07:13:44.628Z,30304
2022-07-28T07:14:45.222Z,31584
2022-07-28T07:15:45.867Z,34048
2022-07-28T07:16:46.501Z,34400
2022-07-28T07:17:47.071Z,33216
2022-07-28T07:18:47.692Z,28960
2022-07-28T07:19:48.296Z,29696
2022-07-28T07:20:48.898Z,29248
2022-07-28T07:21:49.501Z,33504
2022-07-28T07:22:50.103Z,32576
2022-07-28T07:23:50.728Z,30144
2022-07-28T07:24:54.991Z,28800
2022-07-28T07:25:52.952Z,30144
2022-07-28T07:26:53.548Z,31328
2022-07-28T07:27:54.150Z,32064
2022-07-28T07:28:54.750Z,32800
2022-07-28T07:29:55.353Z,35200
2022-07-28T07:30:56.025Z,37728
2022-07-28T07:31:56.655Z,38176
2022-07-28T07:32:57.225Z,39200
2022-07-28T07:33:57.828Z,38080
2022-07-28T07:34:58.431Z,42592
2022-07-28T07:35:59.037Z,44000
2022-07-28T07:36:59.634Z,47072
2022-07-28T07:38:00.237Z,49120
2022-07-28T07:39:00.838Z,42816
2022-07-28T07:40:01.464Z,37664
2022-07-28T07:41:02.042Z,41472
2022-07-28T07:42:02.657Z,42720
2022-07-28T07:43:03.259Z,45792
2022-07-28T07:44:03.856Z,43808
2022-07-28T07:45:04.454Z,39744
2022-07-28T07:46:05.078Z,37856
2022-07-28T07:47:05.700Z,37376
2022-07-28T07:48:06.272Z,44064
2022-07-28T07:49:06.905Z,45248
2022-07-28T07:50:08.152Z,44352
2022-07-28T07:51:13.372Z,49056
2022-07-28T07:52:09.368Z,46944
2022-07-28T07:53:09.970Z,42112
2022-07-28T07:54:10.615Z,38432
2022-07-28T07:55:11.195Z,35360
2022-07-28T07:56:11.798Z,41664
2022-07-28T07:57:12.399Z,46912
2022-07-28T07:58:13.002Z,48128
2022-07-28T07:59:13.626Z,46848
2022-07-28T08:00:29.032Z,52192
2022-07-28T08:01:15.894Z,62048
2022-07-28T08:02:16.501Z,61952
2022-07-28T08:03:17.052Z,54272
2022-07-28T08:04:19.171Z,46528
2022-07-28T08:05:20.243Z,43136
2022-07-28T08:06:26.578Z,46912
2022-07-28T08:07:23.432Z,49504
2022-07-28T08:08:24.220Z,52128
2022-07-28T08:09:24.849Z,48768
2022-07-28T08:10:25.434Z,49472
2022-07-28T08:11:26.055Z,52064
2022-07-28T08:12:26.660Z,54048
2022-07-28T08:13:27.281Z,57184
2022-07-28T08:14:27.912Z,57600
2022-07-28T08:15:28.485Z,64576
2022-07-28T08:16:29.148Z,67136
2022-07-28T08:17:29.708Z,69920
2022-07-28T08:18:30.312Z,70368
2022-07-28T08:19:30.916Z,70592
2022-07-28T08:20:31.519Z,73280
2022-07-28T08:21:32.124Z,77536
2022-07-28T08:22:32.725Z,71296
2022-07-28T08:23:33.328Z,52576
2022-07-28T08:24:34.512Z,41728
2022-07-28T08:25:35.166Z,41696
2022-07-28T08:26:35.768Z,52672
2022-07-28T08:27:36.374Z,67680
2022-07-28T08:28:36.976Z,75968
2022-07-28T08:29:37.599Z,79616
2022-07-28T08:30:38.202Z,79200
2022-07-28T08:31:38.857Z,74080
2022-07-28T08:32:39.453Z,74368
2022-07-28T08:33:53.288Z,80480
2022-07-28T08:34:41.675Z,87776
2022-07-28T08:35:42.277Z,88544
2022-07-28T08:36:42.882Z,78560
2022-07-28T08:37:43.483Z,65696
2022-07-28T08:38:44.087Z,58624
2022-07-28T08:39:44.710Z,59200
2022-07-28T08:40:45.312Z,59328
2022-07-28T08:41:45.934Z,69088
2022-07-28T08:42:46.556Z,75264
2022-07-28T08:43:47.185Z,71744
2022-07-28T08:44:47.786Z,70432
2022-07-28T08:45:48.387Z,67712
2022-07-28T08:46:49.092Z,49952
2022-07-28T08:48:07.737Z,50432
2022-07-28T08:48:51.417Z,51136
2022-07-28T08:49:51.990Z,55136
2022-07-28T08:50:52.593Z,60576
2022-07-28T08:51:53.193Z,66016
2022-07-28T08:52:53.799Z,68160
2022-07-28T08:53:54.431Z,66624
2022-07-28T08:54:55.020Z,60576
2022-07-28T08:55:55.622Z,65408
2022-07-28T08:56:56.226Z,76384
2022-07-28T08:57:56.831Z,69056
2022-07-28T08:58:58.428Z,72864
2022-07-28T08:59:59.053Z,65824
2022-07-28T09:00:59.656Z,72544
2022-07-28T09:02:00.312Z,65408
2022-07-28T09:03:00.926Z,71648
2022-07-28T09:04:01.485Z,80800
2022-07-28T09:05:02.101Z,84800
2022-07-28T09:06:02.709Z,88544
2022-07-28T09:07:03.317Z,88672
2022-07-28T09:08:03.911Z,85408
2022-07-28T09:09:04.512Z,82720
2022-07-28T09:10:05.115Z,81728
2022-07-28T09:11:05.718Z,84032
2022-07-28T09:12:06.321Z,84736
2022-07-28T09:13:06.926Z,88768
2022-07-28T09:14:07.547Z,83360
2022-07-28T09:15:08.142Z,72608
2022-07-28T09:16:08.803Z,68224
2022-07-28T09:17:09.368Z,71168
2022-07-28T09:18:09.970Z,73600
2022-07-28T09:19:10.572Z,67456
2022-07-28T09:20:11.564Z,79904
2022-07-28T09:21:12.259Z,72384
2022-07-28T09:22:12.862Z,73792
2022-07-28T09:23:42.216Z,70976
2022-07-28T09:24:15.402Z,75264
2022-07-28T09:25:16.191Z,77312
2022-07-28T09:26:16.793Z,71008
2022-07-28T09:27:17.395Z,71296
2022-07-28T09:28:17.997Z,70432
2022-07-28T09:29:18.617Z,72384
2022-07-28T09:30:19.260Z,78592
2022-07-28T09:31:19.862Z,75808
2022-07-28T09:32:20.470Z,73856
2022-07-28T09:33:42.529Z,70624
2022-07-28T09:34:22.689Z,75200
2022-07-28T09:35:23.293Z,88480
2022-07-28T09:36:23.899Z,105824
2022-07-28T09:37:27.445Z,108416
2022-07-28T09:38:26.126Z,102528
2022-07-28T09:39:26.742Z,101184
2022-07-28T09:40:27.365Z,94592
2022-07-28T09:41:27.970Z,93280
2022-07-28T09:42:28.570Z,98560
2022-07-28T09:43:29.176Z,105024
2022-07-28T09:44:29.802Z,108256
2022-07-28T09:45:30.452Z,108064
2022-07-28T09:46:31.145Z,106400
2022-07-28T09:47:31.810Z,96704
2022-07-28T09:48:32.427Z,93472
2022-07-28T09:49:33.176Z,96192
2022-07-28T09:50:34.717Z,97984
2022-07-28T09:51:35.320Z,99392
2022-07-28T09:52:35.943Z,104448
2022-07-28T09:53:36.566Z,110272
2022-07-28T09:54:40.817Z,121248
2022-07-28T09:55:37.794Z,109664
2022-07-28T09:56:38.420Z,100768
2022-07-28T09:57:39.023Z,92832
2022-07-28T09:58:40.622Z,91584
2022-07-28T09:59:41.237Z,80064
2022-07-28T10:00:42.832Z,74496
2022-07-28T10:01:43.469Z,77056
2022-07-28T10:02:45.352Z,83456
2022-07-28T10:03:45.647Z,86176
2022-07-28T10:04:46.252Z,84800
2022-07-28T10:05:49.514Z,78464
2022-07-28T10:06:48.450Z,76832
2022-07-28T10:07:49.097Z,82272
2022-07-28T10:08:49.698Z,92672
2022-07-28T10:09:50.303Z,101216
2022-07-28T10:10:51.013Z,100480
2022-07-28T10:11:51.619Z,93088
2022-07-28T10:12:52.222Z,75840
2022-07-28T10:13:52.827Z,70976
2022-07-28T10:14:53.429Z,71296
2022-07-28T10:15:54.053Z,74080
2022-07-28T10:16:54.636Z,81024
2022-07-28T10:17:55.241Z,91008
2022-07-28T10:18:55.844Z,99680
2022-07-28T10:19:56.450Z,110112
2022-07-28T10:20:57.054Z,111648
2022-07-28T10:21:57.677Z,109856
2022-07-28T10:22:58.281Z,117056
2022-07-28T10:23:58.886Z,108544
2022-07-28T10:24:59.489Z,97632
2022-07-28T10:26:00.094Z,91968
2022-07-28T10:27:00.698Z,96512
2022-07-28T10:28:01.302Z,123744
2022-07-28T10:29:01.905Z,139936
2022-07-28T10:30:02.514Z,146880
2022-07-28T10:31:03.166Z,134016
2022-07-28T10:32:03.758Z,115936
2022-07-28T10:33:04.362Z,100096
2022-07-28T10:34:04.966Z,94592
2022-07-28T10:35:05.572Z,106624
2022-07-28T10:36:06.174Z,119712
2022-07-28T10:37:06.775Z,129440
2022-07-28T10:38:07.383Z,123040
2022-07-28T10:39:07.986Z,93984
2022-07-28T10:40:10.595Z,84416
2022-07-28T10:41:09.207Z,76224
2022-07-28T10:42:09.825Z,84096
2022-07-28T10:43:10.416Z,106592
2022-07-28T10:44:11.105Z,122528
2022-07-28T10:45:11.697Z,119232
2022-07-28T10:46:16.379Z,120640
2022-07-28T10:47:18.502Z,109248
2022-07-28T10:48:15.497Z,87008
2022-07-28T10:49:16.680Z,77728
2022-07-28T10:50:18.212Z,82976
2022-07-28T10:51:18.817Z,97600
2022-07-28T10:52:45.950Z,110496
2022-07-28T10:53:22.015Z,116288
2022-07-28T10:54:24.922Z,115744
2022-07-28T10:55:25.191Z,103392
2022-07-28T10:56:26.788Z,95008
2022-07-28T10:57:28.016Z,92960
2022-07-28T10:58:29.615Z,82752
2022-07-28T10:59:30.217Z,98816
2022-07-28T11:00:46.693Z,101312
2022-07-28T11:01:47.721Z,108000
2022-07-28T11:02:33.151Z,107744
2022-07-28T11:03:34.022Z,90752
2022-07-28T11:04:34.647Z,92992
2022-07-28T11:05:35.277Z,100224
2022-07-28T11:06:35.881Z,108768
2022-07-28T11:07:36.502Z,122240
2022-07-28T11:08:37.106Z,141760
2022-07-28T11:09:37.712Z,151616
2022-07-28T11:10:38.313Z,141056
2022-07-28T11:11:38.919Z,128928
2022-07-28T11:12:39.522Z,124032
2022-07-28T11:13:41.278Z,129824
2022-07-28T11:14:41.728Z,142112
2022-07-28T11:15:43.326Z,146240
2022-07-28T11:16:43.981Z,138784
2022-07-28T11:17:44.549Z,126080
2022-07-28T11:18:45.579Z,113056
2022-07-28T11:20:47.779Z,124160
2022-07-28T11:21:52.757Z,132384
2022-07-28T11:22:49.999Z,132736
2022-07-28T11:23:50.589Z,136096
2022-07-28T11:24:51.193Z,146720
2022-07-28T11:25:51.800Z,153728
2022-07-28T11:26:52.430Z,161664
2022-07-28T11:27:53.032Z,125024
2022-07-28T11:28:53.635Z,147840
2022-07-28T11:29:54.552Z,115136
2022-07-28T11:30:55.271Z,84768
2022-07-28T11:31:55.915Z,74176
2022-07-28T11:32:56.519Z,87744
2022-07-28T11:33:57.148Z,127168
2022-07-28T11:34:57.745Z,98944
2022-07-28T11:35:58.349Z,104768
2022-07-28T11:36:58.979Z,98848
2022-07-28T11:37:59.581Z,108160
2022-07-28T11:39:00.183Z,130016
2022-07-28T11:40:00.788Z,122400
2022-07-28T11:41:01.392Z,86912
2022-07-28T11:42:01.995Z,72768
2022-07-28T11:43:03.451Z,78272
2022-07-28T11:44:04.054Z,75712
2022-07-28T11:45:05.650Z,91488
2022-07-28T11:46:11.163Z,103808
2022-07-28T11:47:08.846Z,126144
2022-07-28T11:48:09.469Z,129792
2022-07-28T11:49:14.748Z,127936
2022-07-28T11:50:10.697Z,122976
2022-07-28T11:51:11.323Z,135904
2022-07-28T11:52:11.948Z,139936
2022-07-28T11:53:12.566Z,154496
2022-07-28T11:54:13.406Z,170912
2022-07-28T11:55:14.118Z,175840
2022-07-28T11:56:14.722Z,163520
2022-07-28T11:57:15.324Z,144864
2022-07-28T11:58:15.934Z,126336
2022-07-28T11:59:16.537Z,109568
2022-07-28T12:00:17.143Z,106240
2022-07-28T12:01:18.949Z,120128
2022-07-28T12:02:19.434Z,133824
2022-07-28T12:03:19.982Z,137376
2022-07-28T12:04:21.583Z,133600
2022-07-28T12:05:22.179Z,131328
2022-07-28T12:06:27.190Z,132128
2022-07-28T12:07:24.396Z,134112
2022-07-28T12:08:25.320Z,141760
2022-07-28T12:09:30.952Z,148800
2022-07-28T12:10:54.635Z,144768
2022-07-28T12:11:29.119Z,139872
2022-07-28T12:12:29.724Z,135168
2022-07-28T12:13:30.333Z,138976
2022-07-28T12:14:32.308Z,150976
2022-07-28T12:15:32.531Z,160768
2022-07-28T12:16:33.306Z,160256
2022-07-28T12:17:33.899Z,150432
2022-07-28T12:18:34.524Z,128384
2022-07-28T12:19:35.443Z,119552
2022-07-28T12:20:36.159Z,116864
2022-07-28T12:21:36.779Z,113280
2022-07-28T12:22:37.387Z,111392
2022-07-28T12:23:44.186Z,115872
2022-07-28T12:24:44.666Z,120800
2022-07-28T12:25:41.185Z,120288
2022-07-28T12:26:41.794Z,118624
2022-07-28T12:27:45.906Z,120416
2022-07-28T12:28:44.453Z,126240
2022-07-28T12:29:47.900Z,122048
2022-07-28T12:30:46.896Z,120160
2022-07-28T12:31:47.559Z,116992
2022-07-28T12:32:48.164Z,107264
2022-07-28T12:33:48.788Z,103136
2022-07-28T12:34:49.393Z,114272
2022-07-28T12:35:49.997Z,139520
2022-07-28T12:36:50.601Z,159392
2022-07-28T12:37:51.228Z,164704
2022-07-28T12:38:51.832Z,157952
2022-07-28T12:39:52.439Z,136576
2022-07-28T12:40:53.061Z,110336
2022-07-28T12:41:53.663Z,96640
2022-07-28T12:42:54.266Z,105120
2022-07-28T12:43:54.870Z,123456
2022-07-28T12:44:55.477Z,141632
2022-07-28T12:45:56.128Z,152896
2022-07-28T12:46:56.701Z,153472
2022-07-28T12:47:57.304Z,150752
2022-07-28T12:48:58.060Z,141920
2022-07-28T12:50:02.406Z,135552
2022-07-28T12:50:59.281Z,125536
2022-07-28T12:51:59.886Z,132288
2022-07-28T12:53:00.488Z,147520
2022-07-28T12:54:01.093Z,163136
2022-07-28T12:55:01.701Z,165664
2022-07-28T12:56:02.309Z,156896
2022-07-28T12:57:02.908Z,143968
2022-07-28T12:58:03.511Z,128032
2022-07-28T12:59:04.114Z,116416
2022-07-28T13:00:04.719Z,112416
2022-07-28T13:01:05.397Z,116672
2022-07-28T13:02:06.004Z,120160
2022-07-28T13:03:06.572Z,116256
2022-07-28T13:04:07.175Z,102592
2022-07-28T13:05:07.778Z,97248
2022-07-28T13:06:08.399Z,91776
2022-07-28T13:07:09.002Z,88768
2022-07-28T13:08:09.604Z,93472
2022-07-28T13:09:15.154Z,105120
2022-07-28T13:10:12.916Z,104832
2022-07-28T13:11:41.873Z,134368
2022-07-28T13:12:15.060Z,145152
2022-07-28T13:13:15.666Z,135552
2022-07-28T13:14:16.583Z,115552
2022-07-28T13:15:17.250Z,99104
2022-07-28T13:16:17.933Z,88960
2022-07-28T13:17:18.502Z,93600
2022-07-28T13:18:19.102Z,117856
2022-07-28T13:19:19.710Z,141664
2022-07-28T13:20:20.318Z,152256
2022-07-28T13:21:20.940Z,149984
2022-07-28T13:22:21.545Z,132128
2022-07-28T13:23:22.147Z,111360
2022-07-28T13:24:22.773Z,100640
2022-07-28T13:25:23.379Z,107232
2022-07-28T13:26:23.980Z,133408
2022-07-28T13:27:24.589Z,164160
2022-07-28T13:28:25.194Z,179424
2022-07-28T13:29:25.804Z,167008
2022-07-28T13:30:26.401Z,158880